Time;durP1;ratioP1;P1;durP2;ratioP2;P2;SDS_P1;SDS_P2;PMS_P1;PMS_P2;Temp;Humidity;BMP_temperature;BMP_pressure;BME280_temperature;BME280_humidity;BME280_pressure;Samples;Min_cycle;Max_cycle;Signal;HPM_P1;HPM_P2
2022/08/11 00:01:12;;;;;;;;;24.75;23.75;;;;;24.15;40.33;101282.88;5074201;28;45608;-89
2022/08/11 00:04:00;;;;;;;;;24.25;23.00;;;;;24.25;40.44;101314.09;5090226;27;48825;-90
2022/08/11 00:06:36;;;;;;;;;25.00;23.50;;;;;24.09;40.37;101281.16;5077454;28;45341;-90
2022/08/11 00:09:10;;;;;;;;;22.25;22.25;;;;;24.11;40.94;101295.44;5077417;28;45376;-90
2022/08/11 00:11:40;;;;;;;;;21.50;21.00;;;;;24.01;40.68;101283.03;5077677;28;45551;-93
2022/08/11 00:14:14;;;;;;;;;21.25;20.50;;;;;24.10;40.60;101306.22;5076976;28;46257;-90
2022/08/11 00:16:40;;;;;;;;;24.25;24.25;;;;;23.97;40.72;101277.72;5077348;28;45286;-91
2022/08/11 00:19:07;;;;;;;;;27.00;25.50;;;;;24.09;40.82;101310.72;5077763;27;45672;-91
2022/08/11 00:21:40;;;;;;;;;27.00;23.50;;;;;23.95;41.04;101285.81;5077077;28;45723;-91
2022/08/11 00:24:06;;;;;;;;;22.50;22.50;;;;;23.80;41.05;101270.78;5092947;27;46101;-91
2022/08/11 00:26:32;;;;;;;;;21.25;21.25;;;;;23.94;41.12;101292.09;5077227;28;45505;-91
2022/08/11 00:29:08;;;;;;;;;19.00;19.00;;;;;23.77;41.14;101272.59;5077180;28;45445;-91
2022/08/11 00:31:35;;;;;;;;;25.50;23.00;;;;;23.68;40.55;101257.47;5093007;27;45495;-90
2022/08/11 00:34:03;;;;;;;;;22.25;20.50;;;;;23.80;41.08;101286.00;5076897;28;46431;-93
2022/08/11 00:36:41;;;;;;;;;22.25;20.25;;;;;23.93;40.89;101301.03;5076452;28;46073;-91
2022/08/11 00:39:09;;;;;;;;;23.25;22.00;;;;;23.85;41.01;101298.44;5075755;28;45393;-91
2022/08/11 00:41:46;;;;;;;;;22.50;22.50;;;;;23.86;41.03;101302.03;5092528;27;45412;-87
2022/08/11 00:44:35;;;;;;;;;19.75;18.25;;;;;23.85;41.32;101306.50;5076651;28;52772;-91
2022/08/11 00:47:26;;;;;;;;;21.00;19.75;;;;;23.75;40.97;101299.47;5076626;28;45300;-89
2022/08/11 00:50:06;;;;;;;;;21.50;20.75;;;;;23.71;41.35;101296.81;5076471;28;45362;-89
2022/08/11 00:53:02;;;;;;;;;21.75;20.75;;;;;23.81;41.22;101314.59;5076572;28;45478;-91
2022/08/11 00:55:57;;;;;;;;;20.00;17.75;;;;;23.77;41.09;101305.69;5066220;28;45406;-91
2022/08/11 00:59:00;;;;;;;;;18.75;16.75;;;;;23.58;41.14;101277.22;5076653;28;45361;-92
2022/08/11 01:01:37;;;;;;;;;20.50;19.50;;;;;23.75;41.11;101312.00;5076771;28;45468;-89
2022/08/11 01:04:16;;;;;;;;;19.25;18.00;;;;;23.72;41.01;101312.00;5076515;28;45252;-90
2022/08/11 01:06:50;;;;;;;;;22.00;21.00;;;;;23.67;41.16;101306.69;5074967;28;48387;-87
2022/08/11 01:09:25;;;;;;;;;19.00;18.50;;;;;23.63;41.24;101300.47;5092150;27;45962;-92
2022/08/11 01:12:15;;;;;;;;;19.50;19.00;;;;;23.61;41.22;101298.69;5092576;27;45307;-93
2022/08/11 01:14:53;;;;;;;;;18.25;18.25;;;;;23.55;41.42;101304.13;5091476;27;45558;-89
2022/08/11 01:17:43;;;;;;;;;17.00;17.00;;;;;23.51;41.74;101310.41;5075846;28;45374;-92
2022/08/11 01:20:33;;;;;;;;;16.00;16.00;;;;;23.43;41.64;101305.09;5091842;27;45424;-88
2022/08/11 01:23:20;;;;;;;;;22.00;21.25;;;;;23.27;41.47;101292.75;5076341;28;45395;-89
2022/08/11 01:26:00;;;;;;;;;18.25;18.25;;;;;23.34;42.15;101300.72;5092113;27;45696;-89
2022/08/11 01:28:34;;;;;;;;;19.75;18.00;;;;;23.32;42.28;101307.00;5076278;28;45471;-91
2022/08/11 01:31:21;;;;;;;;;18.00;17.00;;;;;23.30;41.96;101303.44;5092153;27;46057;-90
2022/08/11 01:34:05;;;;;;;;;18.00;18.00;;;;;23.27;42.31;101296.31;5092161;27;45444;-91
2022/08/11 01:37:09;;;;;;;;;18.50;16.50;;;;;23.24;42.71;101300.81;5091557;27;44765;-90
2022/08/11 01:39:59;;;;;;;;;17.75;16.50;;;;;23.22;42.10;101305.31;5091692;27;48354;-89
2022/08/11 01:46:18;;;;;;;;;17.00;15.75;;;;;23.14;42.34;101303.56;5076090;28;45422;-88
2022/08/11 01:49:19;;;;;;;;;14.50;14.25;;;;;22.99;42.37;101284.03;5075985;27;45445;-91
2022/08/11 01:52:31;;;;;;;;;16.75;14.75;;;;;22.94;42.58;101277.81;5091330;27;47978;-89
2022/08/11 01:55:15;;;;;;;;;15.25;14.75;;;;;23.06;42.44;101299.19;5069812;28;45937;-87
2022/08/11 01:58:07;;;;;;;;;14.75;14.75;;;;;22.85;42.55;101282.31;5075604;28;45437;-89
2022/08/11 02:00:47;;;;;;;;;14.50;14.50;;;;;22.92;42.45;101291.25;5074481;28;45545;-88
2022/08/11 02:03:25;;;;;;;;;14.75;14.75;;;;;22.92;42.34;101285.88;5075541;27;46573;-91
2022/08/11 02:09:48;;;;;;;;;13.00;13.00;;;;;22.98;42.27;101301.03;5075775;28;45369;-88
2022/08/11 02:12:45;;;;;;;;;12.50;12.50;;;;;22.94;42.30;101302.84;5065255;28;45334;-92
2022/08/11 02:15:19;;;;;;;;;12.75;12.25;;;;;22.72;42.20;101266.34;5091018;27;48653;-92
2022/08/11 02:18:04;;;;;;;;;12.75;12.25;;;;;22.92;42.42;101305.53;5073908;28;45829;-90
2022/08/11 02:23:52;;;;;;;;;13.00;11.75;;;;;22.81;42.48;101291.28;5076065;28;45706;-91
2022/08/11 02:26:22;;;;;;;;;13.00;12.50;;;;;22.85;42.05;101306.44;5074008;27;48057;-90
2022/08/11 02:29:24;;;;;;;;;13.00;12.75;;;;;22.84;42.26;101301.09;5075345;27;45852;-89
2022/08/11 02:35:26;;;;;;;;;10.50;10.50;;;;;22.81;42.14;101301.13;5074838;28;45492;-91
2022/08/11 02:38:20;;;;;;;;;10.50;10.50;;;;;22.69;42.19;101287.78;5074977;27;45514;-92
2022/08/11 02:40:55;;;;;;;;;14.00;13.00;;;;;22.73;42.40;101294.91;5075050;28;45438;-91
2022/08/11 02:43:53;;;;;;;;;11.00;11.00;;;;;22.59;42.15;101281.59;5074234;28;45338;-91
2022/08/11 02:46:26;;;;;;;;;11.00;11.00;;;;;22.57;42.44;101288.78;5075125;28;45402;-92
2022/08/11 02:52:33;;;;;;;;;10.00;10.00;;;;;22.34;41.95;101257.63;5074914;28;46041;-92
2022/08/11 02:55:09;;;;;;;;;12.00;11.00;;;;;22.43;42.18;101267.41;5074110;28;45524;-92
2022/08/11 02:57:50;;;;;;;;;12.00;11.25;;;;;22.40;42.25;101256.72;5090517;27;45683;-87
2022/08/11 03:00:17;;;;;;;;;10.75;10.75;;;;;22.53;42.07;101285.22;5074686;28;46564;-88
2022/08/11 03:03:01;;;;;;;;;11.75;11.50;;;;;22.56;42.36;101286.97;5074459;27;45279;-86
2022/08/11 03:06:07;;;;;;;;;12.00;12.00;;;;;22.45;42.07;101278.13;5090219;27;45424;-89
2022/08/11 03:09:09;;;;;;;;;12.25;12.25;;;;;22.50;42.29;101292.38;5074101;27;45318;-89
2022/08/11 03:17:40;;;;;;;;;11.50;10.50;;;;;22.39;42.45;101289.75;5074758;28;45375;-91
2022/08/11 03:20:39;;;;;;;;;10.00;10.00;;;;;22.23;42.59;101272.88;5074273;27;45424;-90
2022/08/11 03:23:11;;;;;;;;;12.50;12.00;;;;;22.34;42.51;101295.13;5072993;28;47216;-88
2022/08/11 03:26:00;;;;;;;;;11.75;11.75;;;;;22.32;42.74;101282.66;5074196;28;45264;-88
2022/08/11 03:28:47;;;;;;;;;13.25;13.25;;;;;22.30;42.58;101282.66;5073342;28;45314;-89
2022/08/11 03:31:35;;;;;;;;;11.75;11.00;;;;;22.31;42.44;101281.75;5074589;28;45556;-89
2022/08/11 03:34:07;;;;;;;;;9.75;9.50;;;;;22.31;42.65;101284.44;5072978;28;47262;-91
2022/08/11 03:36:45;;;;;;;;;11.50;10.75;;;;;22.32;42.73;101280.00;5089792;27;45398;-90
2022/08/11 03:39:23;;;;;;;;;11.00;11.00;;;;;22.14;42.62;101251.50;5075827;28;45372;-88
2022/08/11 03:42:08;;;;;;;;;11.00;11.00;;;;;22.29;42.45;101280.00;5077606;28;45421;-88
2022/08/11 03:44:46;;;;;;;;;11.75;11.75;;;;;22.26;42.47;101280.88;5076401;28;48823;-90
2022/08/11 03:47:23;;;;;;;;;13.00;11.75;;;;;22.24;42.70;101284.47;5077537;28;45378;-91
2022/08/11 03:50:14;;;;;;;;;12.25;11.25;;;;;22.09;42.54;101262.19;5077456;28;45370;-90
2022/08/11 03:53:17;;;;;;;;;11.25;11.25;;;;;22.21;42.52;101280.00;5093675;27;45659;-91
2022/08/11 03:56:20;;;;;;;;;11.50;11.50;;;;;22.18;42.89;101281.84;5077731;27;46284;-89
2022/08/11 03:59:03;;;;;;;;;9.75;9.75;;;;;22.15;42.79;101283.63;5077445;28;45458;-88
2022/08/11 04:01:54;;;;;;;;;10.00;10.00;;;;;22.11;42.97;101273.81;5093455;27;45441;-90
2022/08/11 04:04:56;;;;;;;;;13.75;11.50;;;;;22.10;42.95;101277.34;5093473;27;45294;-91
2022/08/11 04:07:27;;;;;;;;;13.00;12.75;;;;;22.08;42.82;101284.53;5077454;27;45531;-92
2022/08/11 04:10:15;;;;;;;;;11.25;11.25;;;;;22.10;42.27;101269.31;5092967;27;45348;-92
2022/08/11 04:13:04;;;;;;;;;12.50;11.00;;;;;22.14;42.56;101279.16;5077580;28;45335;-92
2022/08/11 04:16:05;;;;;;;;;12.00;12.00;;;;;22.14;42.78;101279.16;5077104;27;45279;-91
2022/08/11 04:19:04;;;;;;;;;11.50;11.25;;;;;22.12;42.71;101289.00;5092972;27;47627;-91
2022/08/11 04:22:14;;;;;;;;;12.50;11.50;;;;;22.09;42.47;101278.25;5075565;28;45332;-90
2022/08/11 04:24:52;;;;;;;;;11.00;11.00;;;;;22.06;42.42;101288.97;5068517;28;45498;-90
2022/08/11 04:27:41;;;;;;;;;11.25;11.25;;;;;22.05;43.11;101288.97;5093420;27;45543;-91
2022/08/11 04:30:07;;;;;;;;;11.00;11.00;;;;;22.03;43.00;101291.69;5093318;27;47275;-92
2022/08/11 04:33:01;;;;;;;;;10.67;10.67;;;;;22.00;42.87;101296.16;5077697;28;45267;-91
2022/08/11 04:35:45;;;;;;;;;12.50;12.50;;;;;21.95;43.08;101289.91;5077458;28;45401;-92
2022/08/11 04:38:28;;;;;;;;;12.50;12.50;;;;;21.93;43.17;101289.06;5077332;28;45319;-91
2022/08/11 04:41:31;;;;;;;;;12.00;11.50;;;;;21.89;43.21;101296.19;5077160;28;45733;-91
2022/08/11 04:44:39;;;;;;;;;15.25;15.25;;;;;21.77;43.17;101285.50;5076960;27;45282;-90
2022/08/11 05:02:33;;;;;;;;;11.25;11.25;;;;;21.77;43.51;101294.44;5076881;28;45334;-89
2022/08/11 05:05:32;;;;;;;;;11.25;11.25;;;;;21.75;43.83;101295.34;5076309;27;45519;-93
2022/08/11 05:08:31;;;;;;;;;13.75;13.00;;;;;21.75;43.88;101301.56;5092320;27;45551;-86
2022/08/11 05:11:22;;;;;;;;;11.25;11.25;;;;;21.73;43.92;101300.69;5092314;27;45424;-91
2022/08/11 05:34:53;;;;;;;;;12.00;11.00;;;;;21.80;44.73;101310.47;4916077;28;45404;-91
2022/08/11 05:37:32;;;;;;;;;13.25;12.75;;;;;21.80;44.66;101301.56;4943261;28;45562;-91
2022/08/11 05:56:54;;;;;;;;;13.00;13.00;;;;;22.12;42.59;101288.13;5055694;28;45389;-88
2022/08/11 05:59:22;;;;;;;;;12.00;12.00;;;;;22.24;43.09;101289.84;5054310;28;45646;-89
2022/08/11 06:01:48;;;;;;;;;11.75;11.25;;;;;22.34;41.94;101292.47;5054801;28;46371;-84
2022/08/11 06:04:19;;;;;;;;;11.25;11.25;;;;;22.40;41.91;101283.50;5055193;28;45378;-92
2022/08/11 06:06:58;;;;;;;;;11.00;11.00;;;;;22.76;42.13;101327.03;5054077;28;45536;-90
2022/08/11 06:09:45;;;;;;;;;11.75;11.00;;;;;22.83;41.17;101329.69;5055196;28;45448;-90
2022/08/11 06:12:21;;;;;;;;;10.00;9.25;;;;;22.76;41.16;101292.19;5054047;28;46412;-90
2022/08/11 06:14:52;;;;;;;;;10.00;10.00;;;;;22.81;41.54;101296.66;5065411;27;45362;-87
2022/08/11 06:17:32;;;;;;;;;12.00;11.00;;;;;22.83;41.67;101291.28;5075627;28;45372;-91
2022/08/11 06:20:10;;;;;;;;;10.50;10.50;;;;;23.12;41.04;101340.25;5090981;27;45331;-89
2022/08/11 06:22:37;;;;;;;;;13.00;13.00;;;;;23.02;41.36;101311.72;5075161;28;46421;-89
2022/08/11 06:25:05;;;;;;;;;11.00;11.00;;;;;23.04;41.64;101295.63;5091184;27;45575;-91
2022/08/11 06:27:34;;;;;;;;;11.00;11.00;;;;;23.28;40.83;101332.06;5074090;28;45330;-89
2022/08/11 06:30:12;;;;;;;;;10.25;10.00;;;;;23.23;39.79;101312.44;5075106;28;45661;-91
2022/08/11 06:32:42;;;;;;;;;11.00;11.00;;;;;23.16;39.70;101279.44;5073567;27;46677;-90
2022/08/11 06:35:25;;;;;;;;;11.25;10.00;;;;;23.53;39.50;101340.78;5075231;28;45625;-91
2022/08/11 06:38:00;;;;;;;;;9.25;9.25;;;;;23.60;39.49;101340.72;5075302;28;45387;-91
2022/08/11 06:40:28;;;;;;;;;11.75;11.25;;;;;23.65;39.37;101340.72;5075375;28;45475;-91
2022/08/11 06:43:01;;;;;;;;;11.00;11.00;;;;;23.64;38.58;101323.75;5075120;28;45602;-92
2022/08/11 06:45:49;;;;;;;;;11.00;10.25;;;;;23.80;38.37;101328.94;5091347;27;45924;-91
2022/08/11 06:48:20;;;;;;;;;10.25;10.25;;;;;23.86;38.51;101329.75;5075158;28;45341;-90
2022/08/11 06:51:11;;;;;;;;;12.00;10.25;;;;;23.76;38.16;101305.72;5074436;28;45481;-90
2022/08/11 06:53:50;;;;;;;;;10.75;9.50;;;;;23.99;38.11;101334.97;5074725;28;45513;-90
2022/08/11 07:02:09;;;;;;;;;9.00;9.00;;;;;24.11;37.32;101326.78;5074966;28;45287;-88
2022/08/11 07:04:43;;;;;;;;;9.50;9.25;;;;;24.16;37.29;101324.94;5074482;28;45519;-91
2022/08/11 07:16:49;;;;;;;;;10.00;10.00;;;;;24.44;36.73;101337.16;5078697;28;45429;-91
2022/08/11 07:30:41;;;;;;;;;12.50;12.50;;;;;24.61;36.32;101322.59;5077957;28;45890;-90
2022/08/11 07:33:09;;;;;;;;;11.00;10.00;;;;;24.64;36.09;101325.25;5078042;28;45420;-91
2022/08/11 07:35:46;;;;;;;;;10.75;10.00;;;;;24.73;35.87;101325.13;5077493;28;45263;-91
2022/08/11 07:38:41;;;;;;;;;12.50;12.50;;;;;24.74;35.73;101323.31;5078059;28;45511;-91
2022/08/11 07:41:08;;;;;;;;;10.00;10.00;;;;;24.61;36.16;101304.66;5077975;28;45388;-89
2022/08/11 07:43:34;;;;;;;;;12.00;10.00;;;;;24.76;36.18;101322.38;5078518;28;45580;-89
2022/08/11 07:54:17;;;;;;;;;10.00;10.00;;;;;24.71;35.93;101278.53;5078002;28;45289;-91
2022/08/11 07:56:44;;;;;;;;;10.00;9.25;;;;;24.78;36.46;101282.91;5077927;28;45442;-89
2022/08/11 08:18:26;;;;;;;;;10.00;10.00;;;;;25.43;35.20;101320.44;5076926;28;45365;-87
2022/08/11 08:20:54;;;;;;;;;11.50;11.50;;;;;25.35;35.01;101307.09;5075419;28;47600;-91
2022/08/11 08:23:33;;;;;;;;;11.25;11.25;;;;;25.50;35.62;101324.78;5093140;27;45290;-90
2022/08/11 08:26:03;;;;;;;;;10.75;9.00;;;;;25.43;35.45;101305.16;5077012;28;45487;-90
2022/08/11 08:28:30;;;;;;;;;11.50;11.50;;;;;25.33;35.38;101281.16;5077157;27;45525;-91
2022/08/11 08:30:56;;;;;;;;;10.00;9.00;;;;;25.52;35.56;101308.59;5076798;28;46464;-91
2022/08/11 08:33:27;;;;;;;;;10.00;9.50;;;;;25.69;35.04;101320.84;5077016;28;45924;-90
2022/08/11 08:36:10;;;;;;;;;11.50;11.00;;;;;25.62;34.72;101297.66;5075575;27;45383;-89
2022/08/11 08:38:56;;;;;;;;;10.00;10.00;;;;;25.70;34.92;101295.69;5076416;28;45437;-87
2022/08/11 08:41:26;;;;;;;;;11.00;10.75;;;;;25.88;34.79;101323.22;5076690;27;45625;-91
2022/08/11 08:43:55;;;;;;;;;8.25;8.25;;;;;25.92;34.19;101324.94;5076646;28;45391;-89
2022/08/11 08:46:26;;;;;;;;;10.50;10.25;;;;;25.92;34.75;101308.78;5075969;28;45451;-88
2022/08/11 08:48:53;;;;;;;;;11.00;10.00;;;;;25.99;34.92;101318.50;5076802;28;45380;-86
2022/08/11 08:51:34;;;;;;;;;11.00;11.00;;;;;25.91;34.68;101297.13;5075000;28;48260;-90
2022/08/11 08:54:05;;;;;;;;;12.25;12.00;;;;;26.00;34.15;101306.81;5092347;27;46164;-85
2022/08/11 08:56:33;;;;;;;;;11.00;9.75;;;;;26.10;34.40;101307.50;5076617;28;45365;-87
2022/08/11 08:59:00;;;;;;;;;8.50;7.50;;;;;26.02;34.67;101288.81;5075626;28;45452;-84
2022/08/11 09:01:30;;;;;;;;;9.25;9.25;;;;;26.31;34.22;101325.94;5076362;28;45349;-88
2022/08/11 09:03:57;;;;;;;;;7.50;7.50;;;;;26.23;34.10;101299.13;5076800;28;45880;-90
2022/08/11 09:06:22;;;;;;;;;10.25;10.00;;;;;26.21;33.71;101290.22;5076213;28;45391;-85
2022/08/11 09:08:48;;;;;;;;;8.25;8.25;;;;;26.39;33.79;101298.78;5075449;28;45293;-91
2022/08/11 09:14:01;;;;;;;;;9.25;8.50;;;;;26.54;33.35;101303.88;5076415;28;45291;-90
2022/08/11 09:16:26;;;;;;;;;9.00;9.00;;;;;26.56;32.86;101293.97;5076187;28;45248;-91
2022/08/11 09:18:52;;;;;;;;;7.25;7.25;;;;;26.71;32.82;101306.22;5076205;28;45358;-87
2022/08/11 09:21:22;;;;;;;;;8.00;7.50;;;;;26.74;33.25;101298.03;5075639;28;45558;-89
2022/08/11 09:29:20;;;;;;;;;7.00;7.00;;;;;26.98;33.13;101301.94;5076188;28;45282;-91
2022/08/11 09:31:46;;;;;;;;;9.00;9.00;;;;;27.04;32.64;101298.22;5076193;28;45409;-91
2022/08/11 09:34:13;;;;;;;;;11.00;9.00;;;;;27.02;32.64;101279.38;5076317;28;45433;-90
2022/08/11 09:42:14;;;;;;;;;7.00;7.00;;;;;27.20;31.40;101270.84;5076204;28;45388;-89
2022/08/11 09:44:47;;;;;;;;;8.00;6.00;;;;;27.28;31.38;101270.63;5076208;28;45254;-91
2022/08/11 09:47:18;;;;;;;;;7.00;7.00;;;;;27.47;31.65;101284.53;5076607;28;45571;-91
2022/08/11 09:49:45;;;;;;;;;8.00;8.00;;;;;27.57;31.54;101296.88;5075958;28;45501;-91
2022/08/11 09:52:13;;;;;;;;;4.00;4.00;;;;;27.64;30.71;101287.69;5075349;28;45433;-91
2022/08/11 09:54:40;;;;;;;;;7.00;7.00;;;;;27.56;30.70;101267.22;5075977;28;45458;-90
2022/08/11 09:59:51;;;;;;;;;8.25;8.25;;;;;27.81;29.92;101292.63;5075833;28;45337;-89
2022/08/11 10:02:24;;;;;;;;;8.50;8.50;;;;;27.82;30.49;101280.00;5074162;28;47469;-92
2022/08/11 10:07:00;;;;;;;;;7.25;7.25;;;;;27.84;30.08;101270.06;5074386;28;45854;-89
2022/08/11 10:07:49;;;;;;;;;6.75;6.25;;;;;27.64;29.85;101224.69;5075147;27;45491;-91
2022/08/11 10:10:21;;;;;;;;;8.75;8.75;;;;;28.07;30.23;101282.88;5075482;27;45318;-92
2022/08/11 10:12:49;;;;;;;;;6.75;6.75;;;;;28.14;29.57;101268.28;5075240;27;45533;-92
2022/08/11 10:20:50;;;;;;;;;8.00;8.00;;;;;28.41;29.33;101283.69;5075096;28;45274;-89
2022/08/11 10:28:46;;;;;;;;;7.75;7.75;;;;;28.63;29.25;101277.63;5075165;28;45518;-91
2022/08/11 10:33:59;;;;;;;;;10.50;9.25;;;;;28.60;29.05;101237.13;5074713;28;45747;-89
2022/08/11 10:36:31;;;;;;;;;8.00;8.00;;;;;28.74;28.51;101251.97;5074228;28;46073;-88
2022/08/11 10:38:59;;;;;;;;;8.75;8.50;;;;;28.71;28.34;101246.66;5074857;28;45465;-89
2022/08/11 10:44:14;;;;;;;;;10.00;10.00;;;;;28.87;28.64;101240.75;5074507;28;45773;-89
2022/08/11 10:49:26;;;;;;;;;9.00;9.00;;;;;29.00;28.32;101240.31;5073644;28;45421;-90
2022/08/11 11:00:14;;;;;;;;;9.00;8.00;;;;;29.28;27.70;101242.06;5074594;28;45516;-86
2022/08/11 11:02:41;;;;;;;;;10.00;10.00;;;;;29.25;28.11;101228.63;5074675;28;45449;-91
2022/08/11 11:05:25;;;;;;;;;7.00;7.00;;;;;29.41;27.61;101240.72;5074510;28;45899;-92
2022/08/11 11:08:02;;;;;;;;;9.25;9.25;;;;;29.29;27.77;101212.22;5074336;28;45363;-92
2022/08/11 11:10:31;;;;;;;;;10.25;10.00;;;;;29.48;27.38;101220.56;5074951;27;45402;-88
2022/08/11 11:18:35;;;;;;;;;8.00;8.00;;;;;29.57;27.50;101205.84;5074461;28;45873;-91
2022/08/11 11:21:17;;;;;;;;;10.50;10.25;;;;;29.76;26.85;101219.59;5074687;28;45333;-90
2022/08/11 11:24:03;;;;;;;;;9.50;9.25;;;;;29.55;27.48;101173.38;5090127;27;45457;-86
2022/08/11 11:26:54;;;;;;;;;10.25;10.25;;;;;29.91;27.25;101210.00;5074314;28;45520;-91
2022/08/11 11:29:41;;;;;;;;;10.75;10.75;;;;;29.97;26.96;101207.06;5074343;28;46001;-92
2022/08/11 11:32:22;;;;;;;;;5.00;4.00;;;;;30.01;27.03;101216.84;5074501;27;45236;-93
2022/08/11 11:35:00;;;;;;;;;9.25;9.00;;;;;30.06;27.09;101222.97;5090367;27;45746;-85
2022/08/11 11:37:25;;;;;;;;;8.00;8.00;;;;;30.08;26.96;101213.81;5089709;27;48616;-90
2022/08/11 11:39:53;;;;;;;;;9.25;9.00;;;;;30.08;26.75;101202.97;5074289;28;45299;-89
2022/08/11 11:42:20;;;;;;;;;10.00;9.00;;;;;30.18;26.65;101206.22;5090168;27;45398;-89
2022/08/11 11:44:47;;;;;;;;;9.75;9.75;;;;;30.22;26.57;101207.00;5090001;27;45479;-91
2022/08/11 11:47:14;;;;;;;;;9.00;9.00;;;;;30.30;26.01;101213.91;5089632;27;48997;-92
2022/08/11 11:49:42;;;;;;;;;9.25;9.25;;;;;30.24;26.52;101197.84;5072702;28;46159;-92
2022/08/11 11:52:13;;;;;;;;;9.25;9.00;;;;;30.38;26.69;101208.16;5072767;28;45416;-88
2022/08/11 11:54:40;;;;;;;;;10.50;10.25;;;;;30.36;26.66;101188.34;5090382;27;45339;-89
2022/08/11 12:02:38;;;;;;;;;7.25;7.25;;;;;30.51;26.31;101160.59;5077628;28;45342;-89
2022/08/11 12:05:06;;;;;;;;;9.00;9.00;;;;;30.60;26.85;101156.63;5077412;28;45308;-92
2022/08/11 12:10:17;;;;;;;;;9.75;9.75;;;;;30.87;25.65;101178.13;5077324;28;45386;-87
2022/08/11 12:15:31;;;;;;;;;8.75;8.50;;;;;30.91;26.07;101156.22;5076890;28;45949;-87
2022/08/11 12:17:59;;;;;;;;;11.50;10.75;;;;;31.06;25.85;101171.81;5077196;28;46856;-87
2022/08/11 12:20:25;;;;;;;;;10.75;10.25;;;;;31.02;25.60;101148.47;5076767;28;45314;-87
2022/08/11 12:28:21;;;;;;;;;9.00;9.00;;;;;31.18;25.07;101135.09;5077785;28;45886;-87
2022/08/11 12:30:48;;;;;;;;;8.50;8.00;;;;;31.33;25.61;101131.72;5077656;28;45523;-91
2022/08/11 12:33:14;;;;;;;;;9.75;9.25;;;;;31.51;25.16;101118.25;5077973;28;45543;-88
2022/08/11 12:35:43;;;;;;;;;8.75;8.75;;;;;31.83;25.26;101133.94;5076751;28;45516;-91
2022/08/11 12:38:09;;;;;;;;;9.75;9.75;;;;;32.10;24.48;101123.56;5092141;27;48118;-90
2022/08/11 12:46:17;;;;;;;;;9.75;9.25;;;;;33.09;24.01;101116.75;5076959;28;45341;-89
2022/08/11 12:51:57;;;;;;;;;10.25;9.75;;;;;33.91;23.07;101151.38;5076354;28;45929;-89
2022/08/11 12:54:22;;;;;;;;;10.75;10.75;;;;;34.33;22.69;101151.66;5075632;27;45299;-89
2022/08/11 13:05:14;;;;;;;;;10.00;10.00;;;;;44.49;16.50;101125.28;5076225;28;45220;-83
2022/08/11 13:07:45;;;;;;;;;9.50;9.50;;;;;46.49;14.61;101147.34;5076147;28;45393;-89
2022/08/11 13:10:14;;;;;;;;;8.75;8.75;;;;;48.03;13.27;101147.34;5075870;28;46274;-90
2022/08/11 13:12:47;;;;;;;;;8.25;8.25;;;;;49.16;13.05;101121.63;5074966;28;45878;-92
2022/08/11 13:15:23;;;;;;;;;10.75;9.75;;;;;50.26;12.41;101132.88;5076474;28;45510;-87
2022/08/11 13:17:51;;;;;;;;;10.75;10.50;;;;;50.98;11.91;101117.88;5074903;27;45584;-83
2022/08/11 13:20:22;;;;;;;;;8.75;8.75;;;;;51.94;11.04;101120.91;5076102;28;46167;-90
2022/08/11 13:22:51;;;;;;;;;10.25;10.00;;;;;52.83;10.99;101140.34;5076299;28;45501;-89
2022/08/11 13:25:19;;;;;;;;;9.25;9.25;;;;;53.74;10.19;101146.06;5076066;28;45338;-84
2022/08/11 13:27:47;;;;;;;;;10.25;9.25;;;;;54.42;10.40;101148.38;5076789;28;45515;-89
2022/08/11 13:33:03;;;;;;;;;7.00;7.00;;;;;55.79;8.86;101137.19;5077301;28;45563;-92
2022/08/11 13:35:30;;;;;;;;;7.75;7.00;;;;;56.22;9.04;101127.75;5076672;27;45207;-93
2022/08/11 13:37:57;;;;;;;;;8.50;8.50;;;;;56.49;8.35;101122.56;5076313;28;45524;-90
2022/08/11 13:40:24;;;;;;;;;8.25;8.25;;;;;56.83;6.91;101115.25;5109486;27;47845;-90
2022/08/11 13:42:51;;;;;;;;;8.25;7.75;;;;;56.97;8.56;101132.84;5076356;28;45472;-93
2022/08/11 13:45:18;;;;;;;;;9.75;9.00;;;;;57.05;8.18;101124.88;5076497;28;45337;-93
2022/08/11 13:47:44;;;;;;;;;7.00;7.00;;;;;57.19;8.22;101124.63;5074989;28;45461;-92
2022/08/11 13:50:12;;;;;;;;;9.00;9.00;;;;;57.35;8.17;101115.44;5092395;27;47128;-90
2022/08/11 13:52:39;;;;;;;;;7.00;7.00;;;;;57.66;7.93;101127.44;5074512;28;45620;-92
2022/08/11 13:55:20;;;;;;;;;8.00;7.25;;;;;58.01;7.68;101122.53;5076311;28;45457;-84
2022/08/11 13:57:48;;;;;;;;;8.75;8.75;;;;;58.30;7.24;101114.03;5075453;28;45623;-90
2022/08/11 14:00:13;;;;;;;;;6.25;6.25;;;;;58.73;7.07;101112.53;5073745;28;48578;-86
2022/08/11 14:02:42;;;;;;;;;8.00;8.00;;;;;59.16;6.99;101105.31;5091408;27;45353;-91
2022/08/11 14:05:14;;;;;;;;;8.50;8.50;;;;;59.51;6.98;101127.66;5091342;27;45424;-87
2022/08/11 14:07:48;;;;;;;;;9.25;8.75;;;;;59.30;6.99;101101.81;5075465;28;45284;-92
2022/08/11 14:10:16;;;;;;;;;8.25;8.25;;;;;59.31;6.36;101111.19;5075783;27;46348;-93
2022/08/11 14:15:43;;;;;;;;;6.25;6.25;;;;;59.81;6.78;101113.00;5075567;28;45429;-91
2022/08/11 14:18:17;;;;;;;;;8.50;8.50;;;;;59.89;5.83;101110.56;5075854;27;45337;-89
2022/08/11 14:23:48;;;;;;;;;10.00;9.75;;;;;60.06;6.34;101070.75;5099381;28;45362;-87
2022/08/11 14:26:27;;;;;;;;;8.25;8.25;;;;;60.54;5.44;101102.16;5096180;28;44740;-89
2022/08/11 14:29:08;;;;;;;;;9.75;9.75;;;;;60.74;5.66;101112.84;5088728;28;45564;-91
2022/08/11 14:31:36;;;;;;;;;8.00;8.00;;;;;61.06;5.81;101105.16;5075507;28;46502;-91
2022/08/11 14:34:05;;;;;;;;;7.25;7.25;;;;;61.45;5.67;101086.91;5075907;28;45379;-93
2022/08/11 14:36:37;;;;;;;;;9.75;9.25;;;;;61.89;5.15;101093.06;5075458;28;45360;-92
2022/08/11 14:39:07;;;;;;;;;10.00;9.50;;;;;62.33;4.87;101093.44;5075410;28;45662;-88
2022/08/11 14:47:06;;;;;;;;;10.00;10.00;;;;;62.81;5.02;101093.13;5075787;28;45342;-93
2022/08/11 14:49:36;;;;;;;;;9.75;9.75;;;;;63.11;4.62;101098.84;5090819;27;45647;-88
2022/08/11 14:52:14;;;;;;;;;10.00;10.00;;;;;62.97;4.05;101077.75;5074808;27;45491;-86
2022/08/11 14:57:28;;;;;;;;;9.75;9.75;;;;;63.12;4.65;101069.16;5075187;28;45381;-91
2022/08/11 14:59:58;;;;;;;;;7.75;7.75;;;;;63.01;3.21;101060.88;5074290;28;45456;-86
2022/08/11 15:05:09;;;;;;;;;9.75;9.75;;;;;58.01;5.65;101037.59;5075707;28;45570;-87
2022/08/11 15:07:36;;;;;;;;;9.25;9.25;;;;;54.86;6.46;101017.84;5073705;28;45276;-89
2022/08/11 15:10:05;;;;;;;;;11.00;10.75;;;;;52.07;7.17;101025.56;5074963;28;45208;-92
2022/08/11 15:12:32;;;;;;;;;10.25;9.25;;;;;49.58;9.13;101035.22;5074748;27;45468;-90
2022/08/11 15:17:44;;;;;;;;;9.25;9.25;;;;;45.67;10.41;101025.84;5074681;28;45328;-89
2022/08/11 15:25:48;;;;;;;;;10.00;10.00;;;;;41.99;12.13;101009.66;5074303;28;45439;-86
2022/08/11 15:39:26;;;;;;;;;8.75;8.75;;;;;38.68;14.22;101026.19;5077788;28;45385;-88
2022/08/11 15:47:56;;;;;;;;;11.00;11.00;;;;;37.25;15.59;101000.41;5080555;28;45697;-87
2022/08/11 15:50:28;;;;;;;;;10.75;10.25;;;;;37.06;15.69;101014.56;5081349;28;45392;-87
2022/08/11 15:53:10;;;;;;;;;10.25;10.00;;;;;36.53;16.04;100966.31;5079726;27;45318;-88
2022/08/11 15:55:38;;;;;;;;;11.25;10.50;;;;;36.39;16.08;100992.78;5077336;27;45429;-86
2022/08/11 16:06:32;;;;;;;;;8.50;8.50;;;;;35.67;17.31;100994.06;5076705;28;45941;-88
2022/08/11 16:09:04;;;;;;;;;9.75;9.75;;;;;35.37;17.09;100964.09;5077279;28;45516;-91
2022/08/11 16:11:33;;;;;;;;;12.00;11.50;;;;;35.25;17.55;100970.38;5075672;28;45354;-87
2022/08/11 16:16:48;;;;;;;;;13.00;12.00;;;;;35.02;18.07;100980.06;5076705;28;45563;-86
2022/08/11 16:19:15;;;;;;;;;10.75;10.75;;;;;34.91;17.93;100969.78;5077190;27;45337;-86
2022/08/11 16:21:42;;;;;;;;;11.50;10.75;;;;;34.74;18.23;100951.75;5092186;27;45365;-87
2022/08/11 16:24:14;;;;;;;;;10.25;10.25;;;;;34.74;17.94;100981.78;5077497;27;45414;-89
2022/08/11 16:26:42;;;;;;;;;10.00;10.00;;;;;34.37;17.95;100917.63;5092651;27;48152;-89